sensor_id;sensor_type;location;lat;lon;timestamp;P1;durP1;ratioP1;P2;durP2;ratioP2
5730;SDS011;2890;51.950;7.668;2023-02-13T00:01:37;24.70;;;16.07;;
5730;SDS011;2890;51.950;7.668;2023-02-13T00:04:03;22.07;;;15.33;;
5730;SDS011;2890;51.950;7.668;2023-02-13T00:06:30;20.43;;;14.90;;
5730;SDS011;2890;51.950;7.668;2023-02-13T00:08:58;18.93;;;15.00;;
5730;SDS011;2890;51.950;7.668;2023-02-13T00:11:25;21.63;;;16.40;;
5730;SDS011;2890;51.950;7.668;2023-02-13T00:13:51;20.70;;;15.63;;
5730;SDS011;2890;51.950;7.668;2023-02-13T00:16:18;20.97;;;15.60;;
5730;SDS011;2890;51.950;7.668;2023-02-13T00:18:45;20.53;;;15.27;;
5730;SDS011;2890;51.950;7.668;2023-02-13T00:21:11;19.47;;;15.13;;
5730;SDS011;2890;51.950;7.668;2023-02-13T00:23:38;20.00;;;15.73;;
5730;SDS011;2890;51.950;7.668;2023-02-13T00:26:08;23.17;;;16.07;;
5730;SDS011;2890;51.950;7.668;2023-02-13T00:28:35;23.17;;;16.67;;
5730;SDS011;2890;51.950;7.668;2023-02-13T00:31:03;24.33;;;16.00;;
5730;SDS011;2890;51.950;7.668;2023-02-13T00:33:31;19.37;;;15.10;;
5730;SDS011;2890;51.950;7.668;2023-02-13T00:36:04;18.20;;;15.03;;
5730;SDS011;2890;51.950;7.668;2023-02-13T00:38:33;21.97;;;15.60;;
5730;SDS011;2890;51.950;7.668;2023-02-13T00:40:59;27.10;;;16.30;;
5730;SDS011;2890;51.950;7.668;2023-02-13T00:43:28;20.30;;;15.67;;
5730;SDS011;2890;51.950;7.668;2023-02-13T00:45:54;21.63;;;15.80;;
5730;SDS011;2890;51.950;7.668;2023-02-13T00:48:22;21.87;;;15.87;;
5730;SDS011;2890;51.950;7.668;2023-02-13T00:50:49;23.43;;;16.00;;
5730;SDS011;2890;51.950;7.668;2023-02-13T00:53:16;19.93;;;14.40;;
5730;SDS011;2890;51.950;7.668;2023-02-13T00:55:42;23.10;;;16.43;;
5730;SDS011;2890;51.950;7.668;2023-02-13T00:58:09;19.93;;;15.63;;
5730;SDS011;2890;51.950;7.668;2023-02-13T01:00:37;21.67;;;15.77;;
5730;SDS011;2890;51.950;7.668;2023-02-13T01:03:05;20.40;;;16.20;;
5730;SDS011;2890;51.950;7.668;2023-02-13T01:05:31;23.63;;;15.97;;
5730;SDS011;2890;51.950;7.668;2023-02-13T01:07:58;19.53;;;14.90;;
5730;SDS011;2890;51.950;7.668;2023-02-13T01:10:24;21.77;;;15.20;;
5730;SDS011;2890;51.950;7.668;2023-02-13T01:12:51;21.33;;;15.40;;
5730;SDS011;2890;51.950;7.668;2023-02-13T01:15:18;20.30;;;15.00;;
5730;SDS011;2890;51.950;7.668;2023-02-13T01:17:46;20.83;;;14.87;;
5730;SDS011;2890;51.950;7.668;2023-02-13T01:20:13;20.73;;;14.63;;
5730;SDS011;2890;51.950;7.668;2023-02-13T01:22:40;23.50;;;14.87;;
5730;SDS011;2890;51.950;7.668;2023-02-13T01:25:08;17.07;;;14.03;;
5730;SDS011;2890;51.950;7.668;2023-02-13T01:27:35;18.20;;;13.83;;
5730;SDS011;2890;51.950;7.668;2023-02-13T01:30:02;19.27;;;15.17;;
5730;SDS011;2890;51.950;7.668;2023-02-13T01:32:29;17.93;;;14.23;;
5730;SDS011;2890;51.950;7.668;2023-02-13T01:34:57;20.23;;;13.43;;
5730;SDS011;2890;51.950;7.668;2023-02-13T01:37:23;21.07;;;15.03;;
5730;SDS011;2890;51.950;7.668;2023-02-13T01:39:50;19.07;;;14.27;;
5730;SDS011;2890;51.950;7.668;2023-02-13T01:42:20;18.23;;;14.07;;
5730;SDS011;2890;51.950;7.668;2023-02-13T01:44:50;17.47;;;14.03;;
5730;SDS011;2890;51.950;7.668;2023-02-13T01:47:21;20.63;;;15.37;;
5730;SDS011;2890;51.950;7.668;2023-02-13T01:49:52;19.80;;;14.00;;
5730;SDS011;2890;51.950;7.668;2023-02-13T01:52:22;18.37;;;13.93;;
5730;SDS011;2890;51.950;7.668;2023-02-13T01:54:49;15.90;;;13.07;;
5730;SDS011;2890;51.950;7.668;2023-02-13T01:57:17;17.37;;;13.60;;
5730;SDS011;2890;51.950;7.668;2023-02-13T01:59:47;18.07;;;13.63;;
5730;SDS011;2890;51.950;7.668;2023-02-13T02:02:15;19.43;;;14.57;;
5730;SDS011;2890;51.950;7.668;2023-02-13T02:04:42;19.43;;;13.20;;
5730;SDS011;2890;51.950;7.668;2023-02-13T02:07:10;21.37;;;14.10;;
5730;SDS011;2890;51.950;7.668;2023-02-13T02:09:39;18.10;;;13.77;;
5730;SDS011;2890;51.950;7.668;2023-02-13T02:12:08;19.17;;;13.67;;
5730;SDS011;2890;51.950;7.668;2023-02-13T02:14:36;18.27;;;13.80;;
5730;SDS011;2890;51.950;7.668;2023-02-13T02:17:03;16.37;;;12.27;;
5730;SDS011;2890;51.950;7.668;2023-02-13T02:19:32;17.30;;;13.10;;
5730;SDS011;2890;51.950;7.668;2023-02-13T02:22:15;17.40;;;13.33;;
5730;SDS011;2890;51.950;7.668;2023-02-13T02:25:18;16.87;;;12.47;;
5730;SDS011;2890;51.950;7.668;2023-02-13T02:34:22;15.87;;;11.43;;
5730;SDS011;2890;51.950;7.668;2023-02-13T02:36:57;16.97;;;12.20;;
5730;SDS011;2890;51.950;7.668;2023-02-13T02:39:35;14.83;;;11.27;;
5730;SDS011;2890;51.950;7.668;2023-02-13T02:42:09;14.93;;;11.30;;
5730;SDS011;2890;51.950;7.668;2023-02-13T02:44:44;15.43;;;11.93;;
5730;SDS011;2890;51.950;7.668;2023-02-13T02:47:17;14.67;;;10.70;;
5730;SDS011;2890;51.950;7.668;2023-02-13T02:50:10;16.17;;;11.83;;
5730;SDS011;2890;51.950;7.668;2023-02-13T02:52:43;17.47;;;11.37;;
5730;SDS011;2890;51.950;7.668;2023-02-13T02:55:16;14.43;;;10.47;;
5730;SDS011;2890;51.950;7.668;2023-02-13T02:57:48;16.33;;;11.57;;
5730;SDS011;2890;51.950;7.668;2023-02-13T03:00:36;15.40;;;10.63;;
5730;SDS011;2890;51.950;7.668;2023-02-13T03:03:23;13.87;;;10.33;;
5730;SDS011;2890;51.950;7.668;2023-02-13T03:06:11;16.97;;;10.63;;
5730;SDS011;2890;51.950;7.668;2023-02-13T03:08:41;16.57;;;11.20;;
5730;SDS011;2890;51.950;7.668;2023-02-13T03:11:37;15.20;;;11.03;;
5730;SDS011;2890;51.950;7.668;2023-02-13T03:14:22;12.83;;;9.77;;
5730;SDS011;2890;51.950;7.668;2023-02-13T03:16:50;15.77;;;10.47;;
5730;SDS011;2890;51.950;7.668;2023-02-13T03:19:37;15.30;;;10.63;;
5730;SDS011;2890;51.950;7.668;2023-02-13T03:22:30;16.10;;;11.43;;
5730;SDS011;2890;51.950;7.668;2023-02-13T03:25:04;14.60;;;10.60;;
5730;SDS011;2890;51.950;7.668;2023-02-13T03:27:37;12.33;;;9.57;;
5730;SDS011;2890;51.950;7.668;2023-02-13T03:30:27;12.67;;;9.53;;
5730;SDS011;2890;51.950;7.668;2023-02-13T03:33:00;14.07;;;10.83;;
5730;SDS011;2890;51.950;7.668;2023-02-13T03:35:33;12.50;;;10.17;;
5730;SDS011;2890;51.950;7.668;2023-02-13T03:38:23;13.30;;;10.03;;
5730;SDS011;2890;51.950;7.668;2023-02-13T03:40:54;14.23;;;10.10;;
5730;SDS011;2890;51.950;7.668;2023-02-13T03:43:42;13.70;;;9.37;;
5730;SDS011;2890;51.950;7.668;2023-02-13T03:46:12;12.80;;;9.43;;
5730;SDS011;2890;51.950;7.668;2023-02-13T03:48:39;14.70;;;10.40;;
5730;SDS011;2890;51.950;7.668;2023-02-13T03:51:26;12.63;;;9.87;;
5730;SDS011;2890;51.950;7.668;2023-02-13T03:53:56;11.20;;;9.60;;
5730;SDS011;2890;51.950;7.668;2023-02-13T03:56:25;12.30;;;9.13;;
5730;SDS011;2890;51.950;7.668;2023-02-13T03:59:12;14.10;;;10.30;;
5730;SDS011;2890;51.950;7.668;2023-02-13T04:01:44;12.73;;;10.00;;
5730;SDS011;2890;51.950;7.668;2023-02-13T04:04:16;14.23;;;10.00;;
5730;SDS011;2890;51.950;7.668;2023-02-13T04:06:47;12.70;;;9.63;;
5730;SDS011;2890;51.950;7.668;2023-02-13T04:09:17;12.80;;;9.23;;
5730;SDS011;2890;51.950;7.668;2023-02-13T04:11:46;13.03;;;9.97;;
5730;SDS011;2890;51.950;7.668;2023-02-13T04:14:17;12.60;;;9.80;;
5730;SDS011;2890;51.950;7.668;2023-02-13T04:16:46;13.13;;;9.33;;
5730;SDS011;2890;51.950;7.668;2023-02-13T04:19:15;13.10;;;9.83;;
5730;SDS011;2890;51.950;7.668;2023-02-13T04:21:41;14.20;;;9.87;;
5730;SDS011;2890;51.950;7.668;2023-02-13T04:24:08;12.27;;;9.07;;
5730;SDS011;2890;51.950;7.668;2023-02-13T04:26:36;13.00;;;9.77;;
5730;SDS011;2890;51.950;7.668;2023-02-13T04:29:04;13.73;;;9.33;;
5730;SDS011;2890;51.950;7.668;2023-02-13T04:31:31;12.07;;;9.10;;
5730;SDS011;2890;51.950;7.668;2023-02-13T04:33:57;12.23;;;9.20;;
5730;SDS011;2890;51.950;7.668;2023-02-13T04:36:24;12.17;;;9.33;;
5730;SDS011;2890;51.950;7.668;2023-02-13T04:38:51;13.03;;;9.50;;
5730;SDS011;2890;51.950;7.668;2023-02-13T04:41:17;11.80;;;9.43;;
5730;SDS011;2890;51.950;7.668;2023-02-13T04:43:45;15.13;;;9.87;;
5730;SDS011;2890;51.950;7.668;2023-02-13T04:46:11;12.20;;;9.10;;
5730;SDS011;2890;51.950;7.668;2023-02-13T04:48:38;11.83;;;8.50;;
5730;SDS011;2890;51.950;7.668;2023-02-13T04:51:05;13.60;;;9.57;;
5730;SDS011;2890;51.950;7.668;2023-02-13T04:53:31;11.97;;;9.17;;
5730;SDS011;2890;51.950;7.668;2023-02-13T04:55:58;12.10;;;9.07;;
5730;SDS011;2890;51.950;7.668;2023-02-13T04:58:24;12.63;;;9.30;;
5730;SDS011;2890;51.950;7.668;2023-02-13T05:00:52;11.87;;;9.47;;
5730;SDS011;2890;51.950;7.668;2023-02-13T05:03:18;10.50;;;8.77;;
5730;SDS011;2890;51.950;7.668;2023-02-13T05:05:45;11.77;;;9.10;;
5730;SDS011;2890;51.950;7.668;2023-02-13T05:08:11;16.20;;;10.03;;
5730;SDS011;2890;51.950;7.668;2023-02-13T05:10:38;11.50;;;8.90;;
5730;SDS011;2890;51.950;7.668;2023-02-13T05:13:04;12.10;;;9.13;;
5730;SDS011;2890;51.950;7.668;2023-02-13T05:15:31;12.17;;;9.77;;
5730;SDS011;2890;51.950;7.668;2023-02-13T05:17:59;13.20;;;9.57;;
5730;SDS011;2890;51.950;7.668;2023-02-13T05:20:25;12.03;;;8.67;;
5730;SDS011;2890;51.950;7.668;2023-02-13T05:22:52;12.73;;;9.77;;
5730;SDS011;2890;51.950;7.668;2023-02-13T05:25:38;11.03;;;8.53;;
5730;SDS011;2890;51.950;7.668;2023-02-13T05:28:05;13.37;;;9.37;;
5730;SDS011;2890;51.950;7.668;2023-02-13T05:30:53;12.40;;;9.30;;
5730;SDS011;2890;51.950;7.668;2023-02-13T05:33:20;11.97;;;8.70;;
5730;SDS011;2890;51.950;7.668;2023-02-13T05:35:46;11.20;;;8.30;;
5730;SDS011;2890;51.950;7.668;2023-02-13T05:38:13;13.23;;;8.77;;
5730;SDS011;2890;51.950;7.668;2023-02-13T05:40:39;13.67;;;9.80;;
5730;SDS011;2890;51.950;7.668;2023-02-13T05:43:06;11.33;;;9.10;;
5730;SDS011;2890;51.950;7.668;2023-02-13T05:45:32;12.20;;;8.90;;
5730;SDS011;2890;51.950;7.668;2023-02-13T05:47:59;13.10;;;9.30;;
5730;SDS011;2890;51.950;7.668;2023-02-13T05:50:27;11.80;;;8.80;;
5730;SDS011;2890;51.950;7.668;2023-02-13T05:52:53;14.07;;;9.60;;
5730;SDS011;2890;51.950;7.668;2023-02-13T05:55:19;12.83;;;8.93;;
5730;SDS011;2890;51.950;7.668;2023-02-13T05:57:46;12.70;;;9.70;;
5730;SDS011;2890;51.950;7.668;2023-02-13T06:00:13;12.43;;;9.43;;
5730;SDS011;2890;51.950;7.668;2023-02-13T06:02:40;12.83;;;8.90;;
5730;SDS011;2890;51.950;7.668;2023-02-13T06:05:07;12.77;;;9.43;;
5730;SDS011;2890;51.950;7.668;2023-02-13T06:07:35;13.13;;;9.30;;
5730;SDS011;2890;51.950;7.668;2023-02-13T06:10:01;12.40;;;9.10;;
5730;SDS011;2890;51.950;7.668;2023-02-13T06:12:28;13.03;;;9.57;;
5730;SDS011;2890;51.950;7.668;2023-02-13T06:14:54;11.87;;;9.40;;
5730;SDS011;2890;51.950;7.668;2023-02-13T06:17:20;11.63;;;9.53;;
5730;SDS011;2890;51.950;7.668;2023-02-13T06:19:47;12.87;;;9.10;;
5730;SDS011;2890;51.950;7.668;2023-02-13T06:22:13;16.73;;;10.03;;
5730;SDS011;2890;51.950;7.668;2023-02-13T06:24:41;13.57;;;9.77;;
5730;SDS011;2890;51.950;7.668;2023-02-13T06:27:08;13.33;;;9.57;;
5730;SDS011;2890;51.950;7.668;2023-02-13T06:29:34;11.37;;;8.67;;
5730;SDS011;2890;51.950;7.668;2023-02-13T06:32:01;12.97;;;9.60;;
5730;SDS011;2890;51.950;7.668;2023-02-13T06:34:27;11.43;;;9.07;;
5730;SDS011;2890;51.950;7.668;2023-02-13T06:36:53;14.27;;;10.13;;
5730;SDS011;2890;51.950;7.668;2023-02-13T06:39:20;13.07;;;8.90;;
5730;SDS011;2890;51.950;7.668;2023-02-13T06:41:48;12.07;;;9.13;;
5730;SDS011;2890;51.950;7.668;2023-02-13T06:44:14;13.10;;;9.13;;
5730;SDS011;2890;51.950;7.668;2023-02-13T06:46:41;11.97;;;8.93;;
5730;SDS011;2890;51.950;7.668;2023-02-13T06:49:08;13.67;;;9.70;;
5730;SDS011;2890;51.950;7.668;2023-02-13T06:51:34;13.07;;;9.70;;
5730;SDS011;2890;51.950;7.668;2023-02-13T06:54:01;12.63;;;9.40;;
5730;SDS011;2890;51.950;7.668;2023-02-13T06:56:29;11.50;;;9.17;;
5730;SDS011;2890;51.950;7.668;2023-02-13T06:58:58;11.23;;;9.10;;
5730;SDS011;2890;51.950;7.668;2023-02-13T07:01:24;11.07;;;8.70;;
5730;SDS011;2890;51.950;7.668;2023-02-13T07:03:51;13.23;;;9.67;;
5730;SDS011;2890;51.950;7.668;2023-02-13T07:06:17;13.00;;;9.00;;
5730;SDS011;2890;51.950;7.668;2023-02-13T07:08:44;12.27;;;9.53;;
5730;SDS011;2890;51.950;7.668;2023-02-13T07:11:15;12.73;;;8.73;;
5730;SDS011;2890;51.950;7.668;2023-02-13T07:13:42;11.37;;;8.40;;
5730;SDS011;2890;51.950;7.668;2023-02-13T07:16:10;11.83;;;8.83;;
5730;SDS011;2890;51.950;7.668;2023-02-13T07:18:37;14.60;;;9.43;;
5730;SDS011;2890;51.950;7.668;2023-02-13T07:21:03;11.60;;;9.03;;
5730;SDS011;2890;51.950;7.668;2023-02-13T07:23:30;12.13;;;9.07;;
5730;SDS011;2890;51.950;7.668;2023-02-13T07:25:57;10.93;;;8.17;;
5730;SDS011;2890;51.950;7.668;2023-02-13T07:28:24;10.90;;;8.73;;
5730;SDS011;2890;51.950;7.668;2023-02-13T07:30:50;12.03;;;8.73;;
5730;SDS011;2890;51.950;7.668;2023-02-13T07:33:18;11.30;;;8.47;;
5730;SDS011;2890;51.950;7.668;2023-02-13T07:35:45;13.33;;;9.43;;
5730;SDS011;2890;51.950;7.668;2023-02-13T07:38:12;12.27;;;9.30;;
5730;SDS011;2890;51.950;7.668;2023-02-13T07:40:38;11.70;;;8.80;;
5730;SDS011;2890;51.950;7.668;2023-02-13T07:43:05;10.87;;;8.43;;
5730;SDS011;2890;51.950;7.668;2023-02-13T07:45:32;11.13;;;8.37;;
5730;SDS011;2890;51.950;7.668;2023-02-13T07:47:58;10.80;;;8.57;;
5730;SDS011;2890;51.950;7.668;2023-02-13T07:50:26;10.77;;;8.67;;
5730;SDS011;2890;51.950;7.668;2023-02-13T07:52:53;9.33;;;8.10;;
5730;SDS011;2890;51.950;7.668;2023-02-13T07:55:20;10.47;;;8.40;;
5730;SDS011;2890;51.950;7.668;2023-02-13T07:57:46;9.20;;;7.50;;
5730;SDS011;2890;51.950;7.668;2023-02-13T08:00:13;8.67;;;7.40;;
5730;SDS011;2890;51.950;7.668;2023-02-13T08:02:41;7.93;;;7.13;;
5730;SDS011;2890;51.950;7.668;2023-02-13T08:05:08;8.47;;;7.57;;
5730;SDS011;2890;51.950;7.668;2023-02-13T08:07:36;9.47;;;7.70;;
5730;SDS011;2890;51.950;7.668;2023-02-13T08:10:03;8.60;;;7.70;;
5730;SDS011;2890;51.950;7.668;2023-02-13T08:12:49;9.33;;;7.70;;
5730;SDS011;2890;51.950;7.668;2023-02-13T08:15:16;8.80;;;7.47;;
5730;SDS011;2890;51.950;7.668;2023-02-13T08:17:43;10.13;;;7.50;;
5730;SDS011;2890;51.950;7.668;2023-02-13T08:20:10;8.13;;;7.33;;
5730;SDS011;2890;51.950;7.668;2023-02-13T08:22:38;8.80;;;7.77;;
5730;SDS011;2890;51.950;7.668;2023-02-13T08:25:05;8.53;;;7.63;;
5730;SDS011;2890;51.950;7.668;2023-02-13T08:27:32;8.17;;;7.13;;
5730;SDS011;2890;51.950;7.668;2023-02-13T08:29:58;10.07;;;7.73;;
5730;SDS011;2890;51.950;7.668;2023-02-13T08:32:25;8.50;;;7.60;;
5730;SDS011;2890;51.950;7.668;2023-02-13T08:34:52;9.37;;;7.43;;
5730;SDS011;2890;51.950;7.668;2023-02-13T08:37:18;8.60;;;7.50;;
5730;SDS011;2890;51.950;7.668;2023-02-13T08:39:46;8.90;;;7.83;;
5730;SDS011;2890;51.950;7.668;2023-02-13T08:42:13;8.87;;;7.47;;
5730;SDS011;2890;51.950;7.668;2023-02-13T08:44:39;8.87;;;7.63;;
5730;SDS011;2890;51.950;7.668;2023-02-13T08:47:06;8.13;;;7.33;;
5730;SDS011;2890;51.950;7.668;2023-02-13T08:49:33;10.77;;;8.63;;
5730;SDS011;2890;51.950;7.668;2023-02-13T08:51:59;9.10;;;8.17;;
5730;SDS011;2890;51.950;7.668;2023-02-13T08:54:26;9.23;;;8.23;;
5730;SDS011;2890;51.950;7.668;2023-02-13T08:56:54;9.67;;;7.93;;
5730;SDS011;2890;51.950;7.668;2023-02-13T08:59:21;11.63;;;8.20;;
5730;SDS011;2890;51.950;7.668;2023-02-13T09:01:47;11.93;;;9.47;;
5730;SDS011;2890;51.950;7.668;2023-02-13T09:04:14;9.77;;;8.53;;
5730;SDS011;2890;51.950;7.668;2023-02-13T09:06:42;9.77;;;8.63;;
5730;SDS011;2890;51.950;7.668;2023-02-13T09:09:08;9.93;;;8.77;;
5730;SDS011;2890;51.950;7.668;2023-02-13T09:11:35;9.00;;;8.07;;
5730;SDS011;2890;51.950;7.668;2023-02-13T09:14:03;9.67;;;8.67;;
5730;SDS011;2890;51.950;7.668;2023-02-13T09:16:29;14.17;;;8.87;;
5730;SDS011;2890;51.950;7.668;2023-02-13T09:18:56;10.40;;;8.23;;
5730;SDS011;2890;51.950;7.668;2023-02-13T09:21:23;9.07;;;8.17;;
5730;SDS011;2890;51.950;7.668;2023-02-13T09:23:49;9.07;;;8.13;;
5730;SDS011;2890;51.950;7.668;2023-02-13T09:26:17;9.27;;;8.27;;
5730;SDS011;2890;51.950;7.668;2023-02-13T09:28:44;9.40;;;8.37;;
5730;SDS011;2890;51.950;7.668;2023-02-13T09:31:12;10.00;;;8.83;;
5730;SDS011;2890;51.950;7.668;2023-02-13T09:33:40;8.93;;;8.03;;
5730;SDS011;2890;51.950;7.668;2023-02-13T09:36:08;10.17;;;8.87;;
5730;SDS011;2890;51.950;7.668;2023-02-13T09:38:35;10.33;;;8.97;;
5730;SDS011;2890;51.950;7.668;2023-02-13T09:41:04;11.17;;;8.87;;
5730;SDS011;2890;51.950;7.668;2023-02-13T09:43:33;11.17;;;9.13;;
5730;SDS011;2890;51.950;7.668;2023-02-13T09:46:03;9.77;;;8.77;;
5730;SDS011;2890;51.950;7.668;2023-02-13T09:48:35;9.67;;;8.57;;
5730;SDS011;2890;51.950;7.668;2023-02-13T09:51:02;10.07;;;9.07;;
5730;SDS011;2890;51.950;7.668;2023-02-13T09:53:29;9.67;;;8.53;;
5730;SDS011;2890;51.950;7.668;2023-02-13T09:55:59;11.80;;;8.93;;
5730;SDS011;2890;51.950;7.668;2023-02-13T09:58:38;10.30;;;8.63;;
5730;SDS011;2890;51.950;7.668;2023-02-13T10:01:14;10.27;;;9.10;;
5730;SDS011;2890;51.950;7.668;2023-02-13T10:03:45;9.67;;;8.67;;
5730;SDS011;2890;51.950;7.668;2023-02-13T10:06:17;9.87;;;8.83;;
5730;SDS011;2890;51.950;7.668;2023-02-13T10:08:48;10.60;;;9.40;;
5730;SDS011;2890;51.950;7.668;2023-02-13T10:11:27;9.53;;;8.53;;
5730;SDS011;2890;51.950;7.668;2023-02-13T10:14:03;11.53;;;9.13;;
5730;SDS011;2890;51.950;7.668;2023-02-13T10:16:37;9.87;;;8.30;;
5730;SDS011;2890;51.950;7.668;2023-02-13T10:19:12;9.80;;;8.80;;
5730;SDS011;2890;51.950;7.668;2023-02-13T10:21:44;15.20;;;8.93;;
5730;SDS011;2890;51.950;7.668;2023-02-13T10:24:16;10.40;;;8.60;;
5730;SDS011;2890;51.950;7.668;2023-02-13T10:26:48;9.53;;;8.53;;
5730;SDS011;2890;51.950;7.668;2023-02-13T10:29:17;10.30;;;9.20;;
5730;SDS011;2890;51.950;7.668;2023-02-13T10:32:03;11.20;;;9.43;;
5730;SDS011;2890;51.950;7.668;2023-02-13T10:34:35;9.73;;;8.73;;
5730;SDS011;2890;51.950;7.668;2023-02-13T10:37:07;9.17;;;8.27;;
5730;SDS011;2890;51.950;7.668;2023-02-13T10:39:39;11.53;;;9.83;;
5730;SDS011;2890;51.950;7.668;2023-02-13T10:42:07;9.47;;;8.47;;
5730;SDS011;2890;51.950;7.668;2023-02-13T10:44:42;10.23;;;9.13;;
5730;SDS011;2890;51.950;7.668;2023-02-13T10:47:17;11.70;;;9.90;;
5730;SDS011;2890;51.950;7.668;2023-02-13T10:49:59;10.10;;;9.10;;
5730;SDS011;2890;51.950;7.668;2023-02-13T10:52:35;11.13;;;9.27;;
5730;SDS011;2890;51.950;7.668;2023-02-13T10:55:10;10.13;;;9.13;;
5730;SDS011;2890;51.950;7.668;2023-02-13T10:57:47;9.93;;;8.73;;
5730;SDS011;2890;51.950;7.668;2023-02-13T11:00:24;10.10;;;9.03;;
5730;SDS011;2890;51.950;7.668;2023-02-13T11:02:55;16.53;;;12.10;;
5730;SDS011;2890;51.950;7.668;2023-02-13T11:05:23;14.48;;;10.52;;
5730;SDS011;2890;51.950;7.668;2023-02-13T11:07:51;12.80;;;10.43;;
5730;SDS011;2890;51.950;7.668;2023-02-13T11:10:18;9.47;;;8.40;;
5730;SDS011;2890;51.950;7.668;2023-02-13T11:12:46;11.67;;;9.90;;
5730;SDS011;2890;51.950;7.668;2023-02-13T11:15:20;10.87;;;8.50;;
5730;SDS011;2890;51.950;7.668;2023-02-13T11:17:50;9.93;;;8.93;;
5730;SDS011;2890;51.950;7.668;2023-02-13T11:20:26;11.10;;;9.35;;
5730;SDS011;2890;51.950;7.668;2023-02-13T11:22:55;13.67;;;12.07;;
5730;SDS011;2890;51.950;7.668;2023-02-13T11:25:22;10.00;;;9.00;;
5730;SDS011;2890;51.950;7.668;2023-02-13T11:27:53;9.85;;;8.85;;
5730;SDS011;2890;51.950;7.668;2023-02-13T11:30:33;9.20;;;8.30;;
5730;SDS011;2890;51.950;7.668;2023-02-13T11:33:00;9.02;;;8.07;;
5730;SDS011;2890;51.950;7.668;2023-02-13T11:35:33;9.82;;;8.93;;
5730;SDS011;2890;51.950;7.668;2023-02-13T11:38:17;9.48;;;8.57;;
5730;SDS011;2890;51.950;7.668;2023-02-13T11:40:48;12.40;;;9.32;;
5730;SDS011;2890;51.950;7.668;2023-02-13T11:43:16;10.13;;;9.13;;
5730;SDS011;2890;51.950;7.668;2023-02-13T11:45:45;10.40;;;9.30;;
5730;SDS011;2890;51.950;7.668;2023-02-13T11:48:18;11.07;;;9.07;;
5730;SDS011;2890;51.950;7.668;2023-02-13T11:50:51;9.93;;;8.97;;
5730;SDS011;2890;51.950;7.668;2023-02-13T11:53:20;14.27;;;9.63;;
5730;SDS011;2890;51.950;7.668;2023-02-13T11:55:59;10.75;;;9.55;;
5730;SDS011;2890;51.950;7.668;2023-02-13T11:58:27;9.10;;;8.20;;
5730;SDS011;2890;51.950;7.668;2023-02-13T12:01:06;11.00;;;9.87;;
5730;SDS011;2890;51.950;7.668;2023-02-13T12:03:34;10.53;;;9.43;;
5730;SDS011;2890;51.950;7.668;2023-02-13T12:06:05;10.83;;;9.73;;
5730;SDS011;2890;51.950;7.668;2023-02-13T12:08:37;10.77;;;9.67;;
5730;SDS011;2890;51.950;7.668;2023-02-13T12:11:07;11.47;;;10.27;;
5730;SDS011;2890;51.950;7.668;2023-02-13T12:13:40;10.93;;;9.82;;
5730;SDS011;2890;51.950;7.668;2023-02-13T12:16:09;11.17;;;9.97;;
5730;SDS011;2890;51.950;7.668;2023-02-13T12:18:40;12.03;;;10.20;;
5730;SDS011;2890;51.950;7.668;2023-02-13T12:21:13;12.15;;;10.05;;
5730;SDS011;2890;51.950;7.668;2023-02-13T12:23:48;10.93;;;9.30;;
5730;SDS011;2890;51.950;7.668;2023-02-13T12:26:22;10.90;;;9.80;;
5730;SDS011;2890;51.950;7.668;2023-02-13T12:28:56;11.07;;;9.90;;
5730;SDS011;2890;51.950;7.668;2023-02-13T12:31:32;10.53;;;9.40;;
5730;SDS011;2890;51.950;7.668;2023-02-13T12:34:24;10.95;;;9.85;;
5730;SDS011;2890;51.950;7.668;2023-02-13T12:37:12;10.90;;;9.73;;
5730;SDS011;2890;51.950;7.668;2023-02-13T12:39:46;10.87;;;9.43;;
5730;SDS011;2890;51.950;7.668;2023-02-13T12:42:21;10.60;;;9.50;;
5730;SDS011;2890;51.950;7.668;2023-02-13T12:45:01;13.23;;;10.53;;
5730;SDS011;2890;51.950;7.668;2023-02-13T12:47:36;12.73;;;9.90;;
5730;SDS011;2890;51.950;7.668;2023-02-13T12:50:22;10.13;;;9.07;;
5730;SDS011;2890;51.950;7.668;2023-02-13T12:52:59;10.48;;;9.35;;
5730;SDS011;2890;51.950;7.668;2023-02-13T12:55:37;9.57;;;8.50;;
5730;SDS011;2890;51.950;7.668;2023-02-13T12:58:17;9.90;;;8.90;;
5730;SDS011;2890;51.950;7.668;2023-02-13T13:00:57;12.17;;;10.17;;
5730;SDS011;2890;51.950;7.668;2023-02-13T13:03:32;10.73;;;9.50;;
5730;SDS011;2890;51.950;7.668;2023-02-13T13:06:03;11.85;;;9.85;;
5730;SDS011;2890;51.950;7.668;2023-02-13T13:08:45;10.27;;;8.90;;
5730;SDS011;2890;51.950;7.668;2023-02-13T13:11:24;10.03;;;9.03;;
5730;SDS011;2890;51.950;7.668;2023-02-13T13:13:58;10.13;;;9.00;;
5730;SDS011;2890;51.950;7.668;2023-02-13T13:16:29;10.52;;;8.93;;
5730;SDS011;2890;51.950;7.668;2023-02-13T13:19:01;10.18;;;8.90;;
5730;SDS011;2890;51.950;7.668;2023-02-13T13:21:35;8.53;;;7.60;;
5730;SDS011;2890;51.950;7.668;2023-02-13T13:24:09;9.13;;;8.23;;
5730;SDS011;2890;51.950;7.668;2023-02-13T13:26:46;10.03;;;8.93;;
5730;SDS011;2890;51.950;7.668;2023-02-13T13:29:16;10.77;;;9.57;;
5730;SDS011;2890;51.950;7.668;2023-02-13T13:31:46;8.00;;;7.20;;
5730;SDS011;2890;51.950;7.668;2023-02-13T13:34:18;9.13;;;7.97;;
5730;SDS011;2890;51.950;7.668;2023-02-13T13:36:47;8.73;;;7.83;;
5730;SDS011;2890;51.950;7.668;2023-02-13T13:39:26;8.20;;;7.40;;
5730;SDS011;2890;51.950;7.668;2023-02-13T13:41:59;8.57;;;7.33;;
5730;SDS011;2890;51.950;7.668;2023-02-13T13:44:47;8.80;;;7.70;;
5730;SDS011;2890;51.950;7.668;2023-02-13T13:47:35;8.43;;;7.53;;
5730;SDS011;2890;51.950;7.668;2023-02-13T13:50:11;8.93;;;7.53;;
5730;SDS011;2890;51.950;7.668;2023-02-13T13:58:42;8.60;;;7.70;;
5730;SDS011;2890;51.950;7.668;2023-02-13T14:01:20;9.23;;;7.83;;
5730;SDS011;2890;51.950;7.668;2023-02-13T14:03:49;9.57;;;7.77;;
5730;SDS011;2890;51.950;7.668;2023-02-13T14:06:18;9.63;;;8.73;;
5730;SDS011;2890;51.950;7.668;2023-02-13T14:08:55;8.88;;;7.82;;
5730;SDS011;2890;51.950;7.668;2023-02-13T14:11:29;8.93;;;8.03;;
5730;SDS011;2890;51.950;7.668;2023-02-13T14:13:58;9.70;;;8.00;;
5730;SDS011;2890;51.950;7.668;2023-02-13T14:16:39;9.57;;;8.67;;
5730;SDS011;2890;51.950;7.668;2023-02-13T14:19:21;8.87;;;7.80;;
5730;SDS011;2890;51.950;7.668;2023-02-13T14:21:49;9.13;;;7.77;;
5730;SDS011;2890;51.950;7.668;2023-02-13T14:24:16;8.60;;;7.27;;
5730;SDS011;2890;51.950;7.668;2023-02-13T14:26:49;9.07;;;8.10;;
5730;SDS011;2890;51.950;7.668;2023-02-13T14:29:30;8.50;;;7.60;;
5730;SDS011;2890;51.950;7.668;2023-02-13T14:32:13;8.02;;;7.20;;
5730;SDS011;2890;51.950;7.668;2023-02-13T14:34:42;10.40;;;7.77;;
5730;SDS011;2890;51.950;7.668;2023-02-13T14:37:18;7.93;;;7.13;;
5730;SDS011;2890;51.950;7.668;2023-02-13T14:42:59;9.27;;;8.07;;
5730;SDS011;2890;51.950;7.668;2023-02-13T14:45:29;8.43;;;7.13;;
5730;SDS011;2890;51.950;7.668;2023-02-13T14:48:01;8.17;;;6.97;;
5730;SDS011;2890;51.950;7.668;2023-02-13T14:50:31;7.77;;;6.90;;
5730;SDS011;2890;51.950;7.668;2023-02-13T14:53:06;7.53;;;6.72;;
5730;SDS011;2890;51.950;7.668;2023-02-13T14:55:40;7.53;;;6.83;;
5730;SDS011;2890;51.950;7.668;2023-02-13T14:58:10;8.07;;;6.80;;
5730;SDS011;2890;51.950;7.668;2023-02-13T15:00:40;7.28;;;6.38;;
5730;SDS011;2890;51.950;7.668;2023-02-13T15:03:12;8.93;;;6.30;;
5730;SDS011;2890;51.950;7.668;2023-02-13T15:05:49;7.53;;;6.72;;
5730;SDS011;2890;51.950;7.668;2023-02-13T15:08:17;9.37;;;6.80;;
5730;SDS011;2890;51.950;7.668;2023-02-13T15:10:46;7.70;;;6.60;;
5730;SDS011;2890;51.950;7.668;2023-02-13T15:13:16;7.23;;;6.33;;
5730;SDS011;2890;51.950;7.668;2023-02-13T15:15:43;7.77;;;6.30;;
5730;SDS011;2890;51.950;7.668;2023-02-13T15:18:15;8.00;;;6.63;;
5730;SDS011;2890;51.950;7.668;2023-02-13T15:20:44;7.90;;;6.77;;
5730;SDS011;2890;51.950;7.668;2023-02-13T15:23:15;6.73;;;6.10;;
5730;SDS011;2890;51.950;7.668;2023-02-13T15:25:45;7.97;;;7.00;;
5730;SDS011;2890;51.950;7.668;2023-02-13T15:28:17;7.57;;;6.67;;
5730;SDS011;2890;51.950;7.668;2023-02-13T15:30:51;8.50;;;6.47;;
5730;SDS011;2890;51.950;7.668;2023-02-13T15:33:20;8.13;;;6.75;;
5730;SDS011;2890;51.950;7.668;2023-02-13T15:35:53;8.60;;;6.57;;
5730;SDS011;2890;51.950;7.668;2023-02-13T15:38:22;8.03;;;7.20;;
5730;SDS011;2890;51.950;7.668;2023-02-13T15:40:50;8.97;;;7.67;;